createdAt,value
2022-08-30T00:00:46.589Z,16.12
2022-08-30T00:05:49.696Z,16.12
2022-08-30T00:10:54.552Z,16.04
2022-08-30T00:15:57.603Z,16.02
2022-08-30T00:21:00.946Z,16.00
2022-08-30T00:26:06.067Z,15.99
2022-08-30T00:31:09.168Z,15.87
2022-08-30T00:36:11.981Z,15.81
2022-08-30T00:41:16.135Z,15.77
2022-08-30T00:46:19.423Z,15.68
2022-08-30T00:51:24.236Z,15.62
2022-08-30T00:56:29.925Z,15.57
2022-08-30T01:01:34.361Z,15.52
2022-08-30T01:06:39.899Z,15.53
2022-08-30T01:11:45.280Z,15.58
2022-08-30T01:16:48.737Z,15.57
2022-08-30T01:21:56.816Z,15.53
2022-08-30T01:27:01.130Z,15.46
2022-08-30T01:32:06.379Z,15.48
2022-08-30T01:37:09.255Z,15.46
2022-08-30T01:42:13.488Z,15.45
2022-08-30T01:47:18.169Z,15.36
2022-08-30T01:52:21.000Z,15.31
2022-08-30T01:57:26.851Z,15.22
2022-08-30T02:02:30.989Z,15.20
2022-08-30T02:07:33.885Z,15.20
2022-08-30T02:12:38.315Z,15.27
2022-08-30T02:17:42.513Z,15.23
2022-08-30T02:22:48.165Z,15.18
2022-08-30T02:27:53.729Z,15.18
2022-08-30T02:32:57.720Z,15.15
2022-08-30T02:38:00.624Z,15.09
2022-08-30T02:43:04.969Z,15.01
2022-08-30T02:48:07.779Z,14.92
2022-08-30T02:53:10.905Z,14.88
2022-08-30T02:58:20.360Z,14.90
2022-08-30T03:03:23.806Z,15.00
2022-08-30T03:08:26.912Z,14.98
2022-08-30T03:13:31.371Z,15.03
2022-08-30T03:18:34.547Z,15.01
2022-08-30T03:23:37.376Z,15.03
2022-08-30T03:28:42.633Z,14.98
2022-08-30T03:33:45.439Z,14.88
2022-08-30T03:38:48.440Z,14.80
2022-08-30T03:43:52.665Z,14.74
2022-08-30T03:49:02.638Z,14.68
2022-08-30T03:54:05.588Z,14.73
2022-08-30T03:59:10.013Z,14.77
2022-08-30T04:04:16.297Z,14.79
2022-08-30T04:09:21.532Z,14.86
2022-08-30T04:14:25.698Z,14.88
2022-08-30T04:19:28.611Z,14.84
2022-08-30T04:24:31.424Z,14.88
2022-08-30T04:29:36.434Z,14.90
2022-08-30T04:34:39.296Z,14.85
2022-08-30T04:39:42.696Z,14.80
2022-08-30T04:44:46.913Z,14.88
2022-08-30T04:49:49.779Z,15.12
2022-08-30T04:54:55.783Z,15.22
2022-08-30T04:59:59.959Z,15.23
2022-08-30T05:05:20.671Z,15.31
2022-08-30T05:10:23.684Z,15.41
2022-08-30T05:15:27.896Z,15.45
2022-08-30T05:20:31.132Z,15.42
2022-08-30T05:25:37.775Z,15.45
2022-08-30T05:30:42.269Z,15.46
2022-08-30T05:35:45.053Z,15.48
2022-08-30T05:40:47.844Z,15.32
2022-08-30T05:45:59.755Z,15.24
2022-08-30T05:51:05.131Z,15.41
2022-08-30T05:56:10.377Z,15.48
2022-08-30T06:01:26.371Z,15.50
2022-08-30T06:06:30.301Z,15.47
2022-08-30T06:11:33.258Z,15.52
2022-08-30T06:16:39.765Z,15.54
2022-08-30T06:21:44.052Z,15.78
2022-08-30T06:26:48.086Z,15.85
2022-08-30T06:31:52.577Z,16.06
2022-08-30T06:36:55.467Z,16.12
2022-08-30T06:41:58.275Z,16.24
2022-08-30T06:47:05.913Z,16.35
2022-08-30T06:52:08.744Z,16.01
2022-08-30T06:57:13.852Z,15.97
2022-08-30T07:02:18.123Z,16.38
2022-08-30T07:07:21.043Z,16.83
2022-08-30T07:12:23.849Z,17.05
2022-08-30T07:17:45.619Z,17.09
2022-08-30T07:22:48.638Z,16.87
2022-08-30T07:27:51.972Z,17.07
2022-08-30T07:32:56.137Z,17.43
2022-08-30T07:37:59.456Z,18.14
2022-08-30T07:43:02.381Z,18.79
2022-08-30T07:48:07.332Z,19.13
2022-08-30T07:53:11.311Z,19.76
2022-08-30T07:58:14.891Z,19.88
2022-08-30T08:03:19.307Z,19.94
2022-08-30T08:08:22.825Z,19.72
2022-08-30T08:13:28.049Z,19.26
2022-08-30T08:18:36.877Z,19.77
2022-08-30T08:23:39.712Z,21.12
2022-08-30T08:28:43.038Z,22.35
2022-08-30T08:33:47.564Z,22.54
2022-08-30T08:38:50.444Z,22.06
2022-08-30T08:43:53.259Z,22.55
2022-08-30T08:49:02.501Z,22.83
2022-08-30T08:54:09.528Z,23.20
2022-08-30T08:59:13.177Z,23.56
2022-08-30T09:04:21.225Z,23.27
2022-08-30T09:09:30.609Z,23.42
2022-08-30T09:14:38.832Z,23.32
2022-08-30T09:19:45.366Z,23.74
2022-08-30T09:24:50.367Z,24.17
2022-08-30T09:30:01.059Z,23.56
2022-08-30T09:35:08.603Z,24.47
2022-08-30T09:40:18.340Z,25.12
2022-08-30T09:45:32.948Z,25.04
2022-08-30T09:50:38.144Z,25.14
2022-08-30T09:55:57.293Z,25.68
2022-08-30T10:01:11.135Z,25.16
2022-08-30T10:06:28.904Z,24.72
2022-08-30T10:11:40.313Z,24.93
2022-08-30T10:16:51.308Z,25.09
2022-08-30T10:22:02.401Z,25.25
2022-08-30T10:27:10.128Z,25.70
2022-08-30T10:32:21.366Z,26.15
2022-08-30T10:37:28.002Z,26.52
2022-08-30T10:42:39.844Z,26.96
2022-08-30T10:47:45.773Z,26.96
2022-08-30T10:52:57.372Z,27.00
2022-08-30T10:58:01.776Z,28.13
2022-08-30T11:03:42.695Z,29.15
2022-08-30T11:09:02.433Z,29.58
2022-08-30T11:14:07.937Z,30.06
2022-08-30T11:19:18.889Z,30.87
2022-08-30T11:24:25.726Z,30.48
2022-08-30T11:29:36.146Z,30.21
2022-08-30T11:35:00.355Z,30.83
2022-08-30T11:40:14.260Z,30.96
2022-08-30T11:45:52.294Z,31.31
2022-08-30T11:51:01.432Z,31.39
2022-08-30T11:56:12.365Z,30.97
2022-08-30T12:01:50.142Z,31.72
2022-08-30T12:06:59.953Z,32.15
2022-08-30T12:12:06.494Z,30.57
2022-08-30T12:17:36.285Z,29.28
2022-08-30T12:22:40.558Z,28.16
2022-08-30T12:27:44.846Z,28.54
2022-08-30T12:32:50.890Z,27.16
2022-08-30T12:38:00.763Z,29.51
2022-08-30T12:43:06.798Z,31.85
2022-08-30T12:48:15.194Z,33.39
2022-08-30T12:53:27.820Z,34.05
2022-08-30T12:58:39.123Z,34.21
2022-08-30T13:03:42.080Z,33.40
2022-08-30T13:08:53.222Z,33.05
2022-08-30T13:14:19.342Z,31.92
2022-08-30T13:19:37.650Z,31.43
2022-08-30T13:24:40.444Z,31.48
2022-08-30T13:29:44.594Z,31.02
2022-08-30T13:34:48.926Z,29.63
2022-08-30T13:39:51.725Z,27.76
2022-08-30T13:44:54.617Z,28.36
2022-08-30T13:49:58.884Z,29.56
2022-08-30T13:55:01.756Z,30.25
2022-08-30T14:00:12.044Z,31.02
2022-08-30T14:05:46.665Z,30.61
2022-08-30T14:10:46.889Z,29.31
2022-08-30T14:16:26.615Z,28.91
2022-08-30T14:21:16.017Z,28.87
2022-08-30T14:26:22.212Z,29.59
2022-08-30T14:31:25.808Z,29.61
2022-08-30T14:36:30.426Z,29.59
2022-08-30T14:41:33.759Z,30.23
2022-08-30T14:46:37.533Z,30.27
2022-08-30T14:51:42.767Z,29.67
2022-08-30T14:56:45.715Z,29.78
2022-08-30T15:01:48.668Z,28.88
2022-08-30T15:06:53.137Z,27.55
2022-08-30T15:11:58.755Z,28.00
2022-08-30T15:17:03.227Z,29.02
2022-08-30T15:22:09.106Z,28.83
2022-08-30T15:27:12.411Z,29.04
2022-08-30T15:32:15.223Z,28.50
2022-08-30T15:37:22.405Z,28.34
2022-08-30T15:42:25.268Z,28.47
2022-08-30T15:47:28.108Z,28.55
2022-08-30T15:52:32.658Z,28.39
2022-08-30T15:57:35.433Z,28.48
2022-08-30T16:02:38.977Z,28.55
2022-08-30T16:07:45.667Z,28.71
2022-08-30T16:12:48.449Z,28.39
2022-08-30T16:17:51.259Z,28.22
2022-08-30T16:22:55.433Z,28.18
2022-08-30T16:27:58.357Z,28.03
2022-08-30T16:33:01.153Z,27.89
2022-08-30T16:38:05.327Z,27.67
2022-08-30T16:43:08.196Z,27.59
2022-08-30T16:48:11.865Z,26.55
2022-08-30T16:53:16.214Z,25.87
2022-08-30T16:58:20.873Z,26.06
2022-08-30T17:03:25.171Z,26.02
2022-08-30T17:08:29.437Z,26.01
2022-08-30T17:13:34.029Z,26.06
2022-08-30T17:18:38.401Z,25.72
2022-08-30T17:23:42.774Z,25.28
2022-08-30T17:28:47.851Z,24.58
2022-08-30T17:33:50.711Z,23.98
2022-08-30T17:38:54.890Z,23.42
2022-08-30T17:43:57.830Z,23.14
2022-08-30T17:49:01.284Z,22.92
2022-08-30T17:54:06.180Z,22.61
2022-08-30T17:59:10.872Z,22.42
2022-08-30T18:04:19.759Z,22.17
2022-08-30T18:09:25.316Z,21.86
2022-08-30T18:14:28.125Z,21.51
2022-08-30T18:19:32.089Z,21.33
2022-08-30T18:24:36.493Z,21.18
2022-08-30T18:29:39.359Z,21.03
2022-08-30T18:34:42.914Z,20.87
2022-08-30T18:39:48.346Z,20.67
2022-08-30T18:44:53.414Z,20.52
2022-08-30T18:49:56.289Z,20.41
2022-08-30T18:55:00.459Z,20.33
2022-08-30T19:00:04.515Z,20.27
2022-08-30T19:05:08.567Z,20.20
2022-08-30T19:10:14.632Z,20.16
2022-08-30T19:15:17.762Z,20.06
2022-08-30T19:20:23.097Z,20.01
2022-08-30T19:25:27.647Z,19.89
2022-08-30T19:30:31.791Z,19.78
2022-08-30T19:35:34.596Z,19.63
2022-08-30T19:40:38.973Z,19.56
2022-08-30T19:45:41.855Z,19.53
2022-08-30T19:50:44.680Z,19.41
2022-08-30T19:55:49.026Z,19.46
2022-08-30T20:01:10.726Z,19.41
2022-08-30T20:06:16.101Z,19.28
2022-08-30T20:11:21.441Z,19.29
2022-08-30T20:16:31.016Z,19.21
2022-08-30T20:21:50.063Z,19.11
2022-08-30T20:26:54.513Z,18.98
2022-08-30T20:31:57.508Z,18.98
2022-08-30T20:37:00.397Z,18.92
2022-08-30T20:42:04.744Z,18.91
2022-08-30T20:47:07.737Z,18.87
2022-08-30T20:52:10.662Z,18.80
2022-08-30T20:57:14.912Z,18.72
2022-08-30T21:02:17.833Z,18.70
2022-08-30T21:07:20.688Z,18.62
2022-08-30T21:12:25.145Z,18.58
2022-08-30T21:17:30.142Z,18.51
2022-08-30T21:22:32.929Z,18.42
2022-08-30T21:27:37.109Z,18.42
2022-08-30T21:32:39.960Z,18.36
2022-08-30T21:37:42.760Z,18.34
2022-08-30T21:42:49.744Z,18.33
2022-08-30T21:47:52.669Z,18.24
2022-08-30T21:52:55.568Z,18.22
2022-08-30T21:57:59.757Z,18.19
2022-08-30T22:03:02.581Z,18.20
2022-08-30T22:08:05.413Z,18.13
2022-08-30T22:13:12.845Z,18.08
2022-08-30T22:18:16.391Z,17.92
2022-08-30T22:23:21.022Z,17.90
2022-08-30T22:28:25.469Z,17.91
2022-08-30T22:33:28.484Z,17.91
2022-08-30T22:38:31.321Z,17.83
2022-08-30T22:43:35.600Z,17.82
2022-08-30T22:48:40.751Z,17.81
2022-08-30T22:53:45.059Z,17.66
2022-08-30T22:58:49.769Z,17.62
2022-08-30T23:03:53.490Z,17.51
2022-08-30T23:08:56.293Z,17.44
2022-08-30T23:14:00.596Z,17.38
2022-08-30T23:19:03.519Z,17.30
2022-08-30T23:24:24.454Z,17.22
2022-08-30T23:29:46.451Z,17.14
2022-08-30T23:35:07.042Z,17.03
2022-08-30T23:40:28.924Z,17.04
2022-08-30T23:45:50.475Z,16.89
2022-08-30T23:51:10.705Z,16.86
2022-08-30T23:56:42.389Z,16.70
